Time;durP1;ratioP1;P1;durP2;ratioP2;P2;SDS_P1;SDS_P2;PMS_P1;PMS_P2;Temp;Humidity;BMP_temperature;BMP_pressure;BME280_temperature;BME280_humidity;BME280_pressure;Samples;Min_cycle;Max_cycle;Signal;HPM_P1;HPM_P2
2021/10/09 00:00:44;;;;;;;3.50;1.98;;;11.80;90.80;;;;;;4844945;29;20496;-83
2021/10/09 00:03:09;;;;;;;3.65;2.05;;;11.90;90.80;;;;;;4797470;29;20060;-83
2021/10/09 00:05:35;;;;;;;2.22;1.58;;;11.80;90.80;;;;;;4845506;29;20045;-83
2021/10/09 00:08:01;;;;;;;2.95;1.80;;;11.80;90.90;;;;;;4828089;29;20052;-83
2021/10/09 00:10:29;;;;;;;3.88;2.22;;;11.80;90.90;;;;;;4829304;29;20504;-84
2021/10/09 00:12:56;;;;;;;2.63;1.73;;;11.80;90.90;;;;;;4845264;29;20083;-84
2021/10/09 00:15:23;;;;;;;3.30;1.95;;;11.80;90.90;;;;;;4844636;29;20034;-84
2021/10/09 00:17:49;;;;;;;2.63;1.75;;;11.80;90.90;;;;;;4812689;29;20122;-83
2021/10/09 00:20:15;;;;;;;3.58;1.80;;;11.80;91.00;;;;;;4828789;29;20078;-83
2021/10/09 00:22:41;;;;;;;3.55;2.08;;;11.80;91.00;;;;;;4796008;29;20473;-83
2021/10/09 00:25:08;;;;;;;3.10;1.70;;;11.70;90.90;;;;;;4827466;29;20397;-83
2021/10/09 00:27:34;;;;;;;2.95;1.52;;;11.70;91.00;;;;;;4809526;29;20046;-84
2021/10/09 00:30:00;;;;;;;4.15;2.42;;;11.60;90.90;;;;;;4845081;29;20057;-84
2021/10/09 00:32:26;;;;;;;2.97;1.67;;;11.70;91.00;;;;;;4811187;29;20046;-84
2021/10/09 00:34:52;;;;;;;3.42;2.03;;;11.70;91.30;;;;;;4789083;29;20488;-83
2021/10/09 00:37:18;;;;;;;3.70;2.03;;;11.60;91.00;;;;;;4826671;29;20129;-83
2021/10/09 00:39:44;;;;;;;4.28;2.22;;;11.60;91.00;;;;;;4798665;29;20559;-84
2021/10/09 00:42:10;;;;;;;3.08;2.05;;;11.60;91.00;;;;;;4811017;29;20056;-84
2021/10/09 00:44:36;;;;;;;3.50;2.10;;;11.60;91.00;;;;;;4826945;29;20060;-84
2021/10/09 00:47:03;;;;;;;2.42;1.75;;;11.60;91.30;;;;;;4797428;29;20068;-83
2021/10/09 00:49:31;;;;;;;3.13;1.77;;;11.60;91.10;;;;;;4797385;29;20504;-83
2021/10/09 00:51:58;;;;;;;3.47;1.80;;;11.60;91.10;;;;;;4842620;29;20042;-83
2021/10/09 00:54:26;;;;;;;3.40;1.95;;;11.50;91.10;;;;;;4842896;29;20107;-83
2021/10/09 00:56:55;;;;;;;3.28;1.92;;;11.50;91.10;;;;;;4843686;29;20086;-83
2021/10/09 00:59:26;;;;;;;3.78;2.25;;;11.60;91.10;;;;;;4828344;29;20046;-83
2021/10/09 01:01:52;;;;;;;3.88;2.00;;;11.50;91.10;;;;;;4829795;29;20552;-84
2021/10/09 01:04:18;;;;;;;4.13;2.40;;;11.40;91.10;;;;;;4800895;29;20196;-84
2021/10/09 01:06:45;;;;;;;4.00;2.13;;;11.50;91.20;;;;;;4845829;29;20038;-84
2021/10/09 01:09:11;;;;;;;3.50;2.10;;;11.40;91.10;;;;;;4845743;29;20057;-84
2021/10/09 01:11:38;;;;;;;3.65;2.38;;;11.40;91.10;;;;;;4812643;29;20039;-83
2021/10/09 01:14:04;;;;;;;2.63;1.70;;;11.30;91.10;;;;;;4814320;29;20040;-83
2021/10/09 01:16:30;;;;;;;3.47;2.10;;;11.40;91.10;;;;;;4814296;29;20034;-83
2021/10/09 01:18:58;;;;;;;3.92;2.30;;;11.40;91.10;;;;;;4831122;29;20556;-84
2021/10/09 01:21:24;;;;;;;4.60;2.47;;;11.30;91.20;;;;;;4837272;29;20046;-82
2021/10/09 01:23:51;;;;;;;3.25;1.90;;;11.30;91.20;;;;;;4829672;29;20057;-83
2021/10/09 01:26:17;;;;;;;3.67;2.05;;;11.40;91.20;;;;;;4814789;29;20046;-83
2021/10/09 01:28:47;;;;;;;3.72;1.90;;;11.30;91.20;;;;;;4810132;29;20113;-82
2021/10/09 01:31:13;;;;;;;3.45;2.05;;;11.30;91.20;;;;;;4826453;29;20074;-82
2021/10/09 01:33:41;;;;;;;3.67;1.77;;;11.30;91.20;;;;;;4796004;29;20131;-83
2021/10/09 01:36:06;;;;;;;3.58;2.25;;;11.30;91.20;;;;;;4797609;29;20096;-82
2021/10/09 01:38:35;;;;;;;3.90;2.10;;;11.30;91.30;;;;;;4842179;29;20090;-82
2021/10/09 01:41:01;;;;;;;2.97;1.75;;;11.20;91.20;;;;;;4811273;29;20042;-82
2021/10/09 01:43:28;;;;;;;3.95;2.38;;;11.20;91.30;;;;;;4826754;29;20133;-82
2021/10/09 01:45:53;;;;;;;3.40;2.13;;;11.20;91.30;;;;;;4810304;29;20058;-82
2021/10/09 01:48:29;;;;;;;2.97;1.85;;;11.20;91.30;;;;;;4809804;29;20053;-82
2021/10/09 01:50:55;;;;;;;3.40;2.15;;;11.30;91.40;;;;;;4827591;29;20039;-82
2021/10/09 01:53:20;;;;;;;3.85;2.38;;;11.10;91.30;;;;;;4825535;29;20365;-83
2021/10/09 01:55:46;;;;;;;4.18;2.25;;;11.10;91.30;;;;;;4828334;29;20045;-83
2021/10/09 01:58:12;;;;;;;4.55;2.80;;;11.10;91.30;;;;;;4817314;29;20026;-83
2021/10/09 02:00:37;;;;;;;4.35;2.33;;;11.10;91.40;;;;;;4812695;29;20046;-82
2021/10/09 02:03:05;;;;;;;4.70;2.30;;;11.20;91.40;;;;;;4825879;29;20069;-82
2021/10/09 02:05:32;;;;;;;3.40;1.90;;;11.00;91.30;;;;;;4825940;29;20507;-82
2021/10/09 02:07:59;;;;;;;4.60;2.42;;;11.00;91.40;;;;;;4811408;29;20504;-82
2021/10/09 02:10:25;;;;;;;4.05;2.35;;;11.00;91.40;;;;;;4810331;29;20050;-83
2021/10/09 02:12:51;;;;;;;4.30;2.50;;;11.00;91.40;;;;;;4827461;29;20075;-82
2021/10/09 02:15:22;;;;;;;4.70;2.55;;;11.00;91.40;;;;;;4795387;29;20045;-82
2021/10/09 02:18:07;;;;;;;4.35;2.60;;;10.90;91.40;;;;;;4810647;29;20050;-82
2021/10/09 02:25:57;;;;;;;4.57;2.22;;;10.90;91.40;;;;;;4828740;29;20862;-82
2021/10/09 02:28:23;;;;;;;4.38;2.30;;;10.90;91.40;;;;;;4808928;29;20046;-82
2021/10/09 02:30:52;;;;;;;4.18;2.20;;;10.80;91.40;;;;;;4841262;29;20046;-82
2021/10/09 02:33:17;;;;;;;3.92;2.38;;;10.90;91.50;;;;;;4809239;29;20042;-82
2021/10/09 02:35:44;;;;;;;3.88;2.42;;;10.80;91.40;;;;;;4809452;29;20050;-82
2021/10/09 02:38:10;;;;;;;2.90;1.90;;;10.80;91.50;;;;;;4824312;29;20081;-82
2021/10/09 02:40:38;;;;;;;4.82;2.63;;;10.90;91.50;;;;;;4826822;29;20042;-83
2021/10/09 02:43:05;;;;;;;5.95;2.80;;;10.70;91.50;;;;;;4781038;29;20400;-82
2021/10/09 02:45:31;;;;;;;5.38;2.88;;;10.80;91.50;;;;;;4830372;29;20396;-82
2021/10/09 02:47:58;;;;;;;4.65;2.33;;;10.70;91.50;;;;;;4814398;29;20050;-82
2021/10/09 02:50:24;;;;;;;3.30;2.15;;;10.80;91.50;;;;;;4796890;29;20038;-82
2021/10/09 02:52:50;;;;;;;4.10;2.20;;;10.80;91.50;;;;;;4827187;29;20104;-82
2021/10/09 02:55:19;;;;;;;4.50;2.45;;;10.70;91.50;;;;;;4827596;29;20038;-82
2021/10/09 02:57:46;;;;;;;3.33;2.00;;;10.70;91.50;;;;;;4812512;29;20053;-82
2021/10/09 03:00:12;;;;;;;5.03;2.60;;;10.70;91.50;;;;;;4827011;29;20115;-82
2021/10/09 03:02:38;;;;;;;3.40;1.83;;;10.70;91.50;;;;;;4843225;29;20045;-82
2021/10/09 03:05:06;;;;;;;3.67;1.85;;;10.70;91.60;;;;;;4826829;29;20057;-82
2021/10/09 03:07:31;;;;;;;3.97;2.30;;;10.60;91.60;;;;;;4842855;29;20057;-82
2021/10/09 03:09:57;;;;;;;4.30;2.22;;;10.60;91.60;;;;;;4815623;29;20050;-81
2021/10/09 03:12:24;;;;;;;3.60;1.73;;;10.60;91.60;;;;;;4811500;29;20467;-82
2021/10/09 03:14:51;;;;;;;3.38;2.10;;;10.60;91.60;;;;;;4798328;29;20488;-83
2021/10/09 03:17:17;;;;;;;4.32;2.30;;;10.50;91.60;;;;;;4843032;29;20084;-82
2021/10/09 03:19:43;;;;;;;3.45;1.95;;;10.50;91.60;;;;;;4826620;29;20045;-82
2021/10/09 03:22:09;;;;;;;4.18;2.25;;;10.60;91.60;;;;;;4827171;29;20426;-82
2021/10/09 03:24:34;;;;;;;2.88;1.85;;;10.60;91.60;;;;;;4811647;29;20068;-82
2021/10/09 03:27:00;;;;;;;4.20;2.23;;;10.60;91.70;;;;;;4811186;29;20153;-82
2021/10/09 03:29:26;;;;;;;4.32;2.38;;;10.50;91.70;;;;;;4811351;29;20119;-82
2021/10/09 03:31:52;;;;;;;4.88;2.50;;;10.50;91.70;;;;;;4811392;29;20441;-82
2021/10/09 03:34:18;;;;;;;4.60;2.75;;;10.40;91.70;;;;;;4827196;29;20026;-82
2021/10/09 03:36:44;;;;;;;3.63;2.00;;;10.50;91.70;;;;;;4827117;29;20117;-82
2021/10/09 03:39:13;;;;;;;3.75;1.92;;;10.40;91.70;;;;;;4843266;29;20049;-82
2021/10/09 03:41:43;;;;;;;3.30;2.03;;;10.50;91.70;;;;;;4804410;29;20449;-82
2021/10/09 03:44:09;;;;;;;3.55;2.20;;;10.40;91.70;;;;;;4795138;29;20133;-82
2021/10/09 03:46:42;;;;;;;4.93;2.65;;;10.30;91.70;;;;;;4826348;29;20141;-81
2021/10/09 03:49:22;;;;;;;3.13;1.75;;;10.40;91.70;;;;;;4798191;29;20240;-82
2021/10/09 03:54:33;;;;;;;3.13;1.80;;;10.30;91.70;;;;;;4814907;29;20045;-81
2021/10/09 03:56:58;;;;;;;3.15;1.70;;;10.30;91.70;;;;;;4842920;29;20038;-81
2021/10/09 03:59:24;;;;;;;3.05;1.80;;;10.30;91.70;;;;;;4810797;29;20050;-81
2021/10/09 04:01:50;;;;;;;3.15;1.80;;;10.20;91.70;;;;;;4842388;29;20124;-82
2021/10/09 04:04:16;;;;;;;3.83;1.83;;;10.20;91.70;;;;;;4795975;29;20399;-82
2021/10/09 04:06:42;;;;;;;3.20;1.80;;;10.20;91.80;;;;;;4842756;29;20107;-81
2021/10/09 04:09:07;;;;;;;3.03;1.58;;;10.20;91.80;;;;;;4810923;29;20053;-81
2021/10/09 04:11:33;;;;;;;2.65;1.70;;;10.20;91.80;;;;;;4795798;29;20071;-81
2021/10/09 04:14:00;;;;;;;2.90;1.65;;;10.20;91.80;;;;;;4826043;29;20046;-81
2021/10/09 04:16:25;;;;;;;2.75;1.50;;;10.10;91.80;;;;;;4810869;29;20091;-81
2021/10/09 04:18:51;;;;;;;2.90;1.83;;;10.10;91.80;;;;;;4826336;29;20468;-81
2021/10/09 04:21:17;;;;;;;2.78;1.67;;;10.00;91.80;;;;;;4782791;29;20053;-81
2021/10/09 04:23:43;;;;;;;3.50;2.00;;;9.90;91.90;;;;;;4810603;29;20125;-81
2021/10/09 04:26:08;;;;;;;3.58;1.75;;;9.90;91.90;;;;;;4826431;29;20041;-81
2021/10/09 04:28:34;;;;;;;3.20;1.80;;;9.90;91.90;;;;;;4825444;29;20046;-81
2021/10/09 04:31:01;;;;;;;2.15;1.42;;;9.80;91.90;;;;;;4825541;29;20041;-81
2021/10/09 04:33:29;;;;;;;3.42;1.75;;;9.80;92.00;;;;;;4825591;29;20038;-81
2021/10/09 04:35:55;;;;;;;2.95;1.55;;;9.70;92.00;;;;;;4826015;29;20129;-81
2021/10/09 04:38:21;;;;;;;3.10;1.67;;;9.70;92.00;;;;;;4810413;29;20129;-81
2021/10/09 04:40:47;;;;;;;4.55;2.10;;;9.70;92.00;;;;;;4825522;29;20484;-81
2021/10/09 04:43:12;;;;;;;4.18;2.20;;;9.70;92.00;;;;;;4825509;29;20045;-81
2021/10/09 04:45:38;;;;;;;2.25;1.42;;;9.80;92.00;;;;;;4825694;29;20593;-81
2021/10/09 04:48:05;;;;;;;3.30;1.83;;;9.60;91.90;;;;;;4825505;29;20038;-81
2021/10/09 04:50:32;;;;;;;3.85;2.10;;;9.60;92.00;;;;;;4825833;29;20485;-81
2021/10/09 04:52:58;;;;;;;3.95;1.92;;;9.60;91.90;;;;;;4810181;29;20091;-81
2021/10/09 04:55:24;;;;;;;5.10;2.47;;;9.60;92.00;;;;;;4795192;29;20049;-81
2021/10/09 04:57:50;;;;;;;3.75;2.10;;;9.50;91.90;;;;;;4810741;29;20057;-81
2021/10/09 05:00:15;;;;;;;3.25;1.80;;;9.60;91.90;;;;;;4842136;29;20404;-81
2021/10/09 05:02:41;;;;;;;2.60;1.75;;;9.60;91.90;;;;;;4810167;29;20445;-80
2021/10/09 05:05:07;;;;;;;4.50;2.22;;;9.60;91.90;;;;;;4841468;29;20045;-81
2021/10/09 05:07:33;;;;;;;3.38;1.80;;;9.60;91.90;;;;;;4825227;29;20054;-81
2021/10/09 05:09:59;;;;;;;3.58;1.80;;;9.60;91.90;;;;;;4780028;29;20193;-81
2021/10/09 05:12:25;;;;;;;3.83;1.95;;;9.60;91.90;;;;;;4809763;29;20069;-81
2021/10/09 05:14:50;;;;;;;3.80;2.15;;;9.50;91.90;;;;;;4841926;29;20465;-81
2021/10/09 05:17:16;;;;;;;4.70;2.20;;;9.60;91.90;;;;;;4809821;29;20030;-81
2021/10/09 05:19:42;;;;;;;4.55;2.03;;;9.50;91.90;;;;;;4794677;29;20042;-81
2021/10/09 05:22:08;;;;;;;4.53;2.38;;;9.60;91.90;;;;;;4841348;29;20507;-82
2021/10/09 05:24:34;;;;;;;3.42;1.75;;;9.50;91.90;;;;;;4825188;29;20034;-80
2021/10/09 05:27:00;;;;;;;3.65;2.17;;;9.50;91.90;;;;;;4810114;29;20049;-79
2021/10/09 05:29:26;;;;;;;3.15;1.67;;;9.50;91.90;;;;;;4825641;29;20128;-81
2021/10/09 05:31:53;;;;;;;4.93;2.17;;;9.40;91.90;;;;;;4825731;29;20044;-80
2021/10/09 05:34:19;;;;;;;4.22;2.00;;;9.50;91.90;;;;;;4825816;29;20533;-80
2021/10/09 05:36:45;;;;;;;4.32;2.60;;;9.40;91.90;;;;;;4824645;29;20046;-80
2021/10/09 05:39:11;;;;;;;4.20;2.47;;;9.40;91.90;;;;;;4812080;29;20108;-81
2021/10/09 05:41:36;;;;;;;3.53;2.20;;;9.50;91.90;;;;;;4825290;29;20404;-81
2021/10/09 05:44:03;;;;;;;4.07;2.17;;;9.40;91.90;;;;;;4781484;29;20050;-81
2021/10/09 05:46:29;;;;;;;3.38;1.90;;;9.40;91.90;;;;;;4796495;29;20042;-80
2021/10/09 05:48:56;;;;;;;2.67;1.52;;;9.40;91.90;;;;;;4824501;29;20492;-80
2021/10/09 05:51:27;;;;;;;3.25;1.77;;;9.40;92.20;;;;;;4809998;29;20499;-80
2021/10/09 05:54:03;;;;;;;4.00;2.20;;;9.30;91.90;;;;;;4826000;29;20046;-80
2021/10/09 05:56:36;;;;;;;3.78;2.05;;;9.40;92.00;;;;;;4810453;29;20069;-80
2021/10/09 06:31:01;;;;;;;2.80;1.70;;;9.30;91.90;;;;;;4828747;29;20539;-79
2021/10/09 06:32:00;;;;;;;3.08;1.95;;;9.40;91.90;;;;;;4842715;29;20178;-79
2021/10/09 06:42:52;;;;;;;4.18;2.33;;;9.40;91.90;;;;;;4843599;29;20057;-79
2021/10/09 06:45:52;;;;;;;4.47;2.47;;;9.40;91.90;;;;;;4830152;29;20052;-80
2021/10/09 06:48:14;;;;;;;4.78;2.40;;;9.60;91.90;;;;;;4817170;29;20194;-79
2021/10/09 07:01:20;;;;;;;3.97;2.10;;;9.50;91.70;;;;;;4843427;29;20480;-80
2021/10/09 07:03:45;;;;;;;5.93;2.60;;;9.60;92.00;;;;;;4812071;29;20050;-79
2021/10/09 07:06:15;;;;;;;4.65;2.60;;;9.60;91.70;;;;;;4811838;29;20038;-79
2021/10/09 07:08:40;;;;;;;4.93;2.40;;;9.60;91.70;;;;;;4843743;29;20114;-79
2021/10/09 07:11:07;;;;;;;3.85;2.00;;;9.70;91.70;;;;;;4812061;29;20484;-79
2021/10/09 07:13:33;;;;;;;4.88;2.65;;;9.70;91.70;;;;;;4813376;29;20079;-80
2021/10/09 07:15:59;;;;;;;6.15;3.33;;;9.70;91.70;;;;;;4812698;29;20050;-80
2021/10/09 07:18:25;;;;;;;5.32;2.80;;;9.60;91.70;;;;;;4826936;29;20058;-80
2021/10/09 07:20:51;;;;;;;5.40;3.15;;;9.70;91.70;;;;;;4810647;29;20069;-80
2021/10/09 07:23:17;;;;;;;5.75;3.10;;;9.70;91.70;;;;;;4812139;29;20082;-80
2021/10/09 07:25:43;;;;;;;4.85;2.58;;;9.70;91.60;;;;;;4827225;29;20065;-80
2021/10/09 07:28:09;;;;;;;4.55;2.83;;;9.80;91.70;;;;;;4826641;29;20500;-80
2021/10/09 07:30:34;;;;;;;4.60;2.30;;;9.80;91.70;;;;;;4812507;29;20046;-81
2021/10/09 07:33:00;;;;;;;3.60;2.13;;;9.90;91.70;;;;;;4810803;29;20042;-80
2021/10/09 07:35:26;;;;;;;4.07;2.20;;;9.90;91.60;;;;;;4831224;29;20076;-80
2021/10/09 07:37:52;;;;;;;3.85;2.10;;;9.90;91.60;;;;;;4827343;29;20500;-79
2021/10/09 07:40:19;;;;;;;6.30;3.20;;;9.90;91.60;;;;;;4794972;29;20054;-79
2021/10/09 07:42:45;;;;;;;5.47;2.97;;;9.90;91.70;;;;;;4796549;29;20045;-79
2021/10/09 07:45:11;;;;;;;4.97;2.78;;;10.10;91.70;;;;;;4826876;29;20135;-79
2021/10/09 07:47:37;;;;;;;4.97;2.78;;;10.10;91.70;;;;;;4843185;29;20112;-79
2021/10/09 07:50:03;;;;;;;4.68;2.67;;;10.10;91.60;;;;;;4808785;29;20428;-79
2021/10/09 07:52:29;;;;;;;4.97;2.75;;;10.10;91.60;;;;;;4806410;29;20588;-79
2021/10/09 07:54:55;;;;;;;4.45;2.45;;;10.10;91.60;;;;;;4824324;29;20042;-81
2021/10/09 07:57:21;;;;;;;5.05;2.58;;;10.10;91.60;;;;;;4779625;29;20050;-80
2021/10/09 07:59:47;;;;;;;4.05;2.50;;;10.20;91.60;;;;;;4826218;29;20056;-80
2021/10/09 08:02:13;;;;;;;5.53;2.83;;;10.20;91.60;;;;;;4795774;29;20045;-81
2021/10/09 08:04:39;;;;;;;5.18;3.10;;;10.20;91.60;;;;;;4801640;29;20104;-81
2021/10/09 08:07:05;;;;;;;4.18;2.20;;;10.20;91.60;;;;;;4786339;29;20070;-81
2021/10/09 08:09:34;;;;;;;4.90;2.75;;;10.20;91.60;;;;;;4810685;29;20534;-81
2021/10/09 08:12:00;;;;;;;6.00;2.90;;;10.30;91.60;;;;;;4811216;29;20069;-80
2021/10/09 08:14:26;;;;;;;5.15;2.67;;;10.20;91.50;;;;;;4826433;29;20441;-80
2021/10/09 08:16:52;;;;;;;5.15;2.92;;;10.30;91.50;;;;;;4779214;29;20512;-79
2021/10/09 08:19:17;;;;;;;4.65;2.75;;;10.30;91.50;;;;;;4810875;29;20042;-80
2021/10/09 08:21:45;;;;;;;4.75;2.42;;;10.20;91.80;;;;;;4826225;29;20102;-80
2021/10/09 08:24:24;;;;;;;5.05;3.05;;;10.20;91.50;;;;;;4790201;29;20103;-81
2021/10/09 08:27:05;;;;;;;6.65;3.13;;;10.20;91.50;;;;;;4798610;29;20510;-79
2021/10/09 08:40:19;;;;;;;5.10;3.05;;;10.10;91.60;;;;;;4813133;29;20057;-79
2021/10/09 08:42:48;;;;;;;4.93;2.38;;;10.20;91.60;;;;;;4826026;29;20049;-81
2021/10/09 08:45:14;;;;;;;5.20;3.05;;;10.20;91.60;;;;;;4790353;29;20062;-81
2021/10/09 08:47:44;;;;;;;6.28;3.10;;;10.20;91.60;;;;;;4793972;29;20386;-82
2021/10/09 08:50:12;;;;;;;6.22;3.25;;;10.20;91.60;;;;;;4773500;29;20052;-82
2021/10/09 08:53:03;;;;;;;5.78;3.33;;;10.20;91.60;;;;;;4756125;29;20077;-81
2021/10/09 08:55:30;;;;;;;5.07;2.90;;;10.20;91.60;;;;;;4771779;29;20387;-81
2021/10/09 08:58:02;;;;;;;5.20;2.92;;;10.30;91.60;;;;;;4770509;29;20043;-81
2021/10/09 09:00:59;;;;;;;4.47;2.78;;;10.30;91.50;;;;;;4756629;29;20181;-82
2021/10/09 09:03:53;;;;;;;5.47;3.00;;;10.50;91.40;;;;;;4761966;29;20091;-82
2021/10/09 09:06:43;;;;;;;5.75;2.88;;;10.50;91.40;;;;;;4770124;29;20197;-82
2021/10/09 09:09:32;;;;;;;5.53;3.13;;;10.40;91.30;;;;;;4757609;29;20059;-81
2021/10/09 09:25:53;;;;;;;6.28;3.53;;;10.50;91.40;;;;;;4827108;29;20045;-81
2021/10/09 09:31:29;;;;;;;4.25;2.47;;;10.80;91.30;;;;;;4814864;29;20121;-81
2021/10/09 09:34:01;;;;;;;4.63;2.80;;;10.70;91.20;;;;;;4801862;29;20510;-83
2021/10/09 09:36:49;;;;;;;5.13;3.30;;;10.80;91.20;;;;;;4782708;29;20070;-83
2021/10/09 09:39:13;;;;;;;6.28;3.67;;;10.80;91.10;;;;;;4813472;29;20149;-83
2021/10/09 09:41:48;;;;;;;6.97;3.55;;;10.90;91.10;;;;;;4841653;29;20431;-82
2021/10/09 09:44:17;;;;;;;5.85;3.13;;;10.90;91.10;;;;;;4794613;29;20046;-82
2021/10/09 09:47:01;;;;;;;4.93;2.70;;;10.90;91.10;;;;;;4794668;29;20432;-82
2021/10/09 09:49:29;;;;;;;5.43;2.97;;;11.00;91.10;;;;;;4840861;29;20054;-83
2021/10/09 09:51:56;;;;;;;4.95;3.05;;;11.00;91.00;;;;;;4801503;29;20049;-83
2021/10/09 09:54:31;;;;;;;6.03;3.50;;;11.00;91.00;;;;;;4813019;29;20038;-83
2021/10/09 09:59:49;;;;;;;4.90;2.88;;;11.10;91.00;;;;;;4786799;29;20112;-83
2021/10/09 10:02:20;;;;;;;4.82;3.08;;;11.00;90.90;;;;;;4752686;30;20555;-83
2021/10/09 10:04:45;;;;;;;4.50;2.75;;;11.10;90.90;;;;;;4769862;30;20091;-82
2021/10/09 10:07:11;;;;;;;5.53;2.95;;;11.10;91.00;;;;;;4740740;30;20078;-83
2021/10/09 10:09:39;;;;;;;5.82;3.65;;;11.10;90.90;;;;;;4740302;30;20398;-82
2021/10/09 10:12:06;;;;;;;5.18;2.90;;;11.20;90.90;;;;;;4740325;30;20040;-83
2021/10/09 10:14:34;;;;;;;5.40;3.10;;;11.20;91.20;;;;;;4740077;30;20097;-82
2021/10/09 10:17:01;;;;;;;5.53;3.05;;;11.30;90.90;;;;;;4740158;30;20047;-82
2021/10/09 10:20:00;;;;;;;6.90;3.47;;;11.30;90.90;;;;;;4769924;30;20048;-83
2021/10/09 10:22:55;;;;;;;4.50;2.50;;;11.30;90.80;;;;;;4770241;30;20055;-82
2021/10/09 10:25:28;;;;;;;3.60;2.08;;;11.40;90.80;;;;;;4758382;30;20067;-82
2021/10/09 10:28:23;;;;;;;3.33;2.20;;;11.40;90.80;;;;;;4781463;29;20425;-82
2021/10/09 10:31:03;;;;;;;5.22;2.75;;;11.50;90.70;;;;;;4790364;29;20054;-81
2021/10/09 10:33:32;;;;;;;3.90;2.38;;;11.50;90.70;;;;;;4790136;29;20094;-82
2021/10/09 10:35:58;;;;;;;5.32;2.67;;;11.60;90.70;;;;;;4805288;29;20049;-82
2021/10/09 10:38:46;;;;;;;5.70;2.88;;;11.60;90.70;;;;;;4812261;29;20436;-83
2021/10/09 10:41:17;;;;;;;5.40;2.85;;;11.70;90.60;;;;;;4827615;29;20121;-82
2021/10/09 10:43:47;;;;;;;5.55;3.08;;;11.70;90.60;;;;;;4807380;29;20119;-81
2021/10/09 10:46:39;;;;;;;6.78;3.50;;;11.80;90.60;;;;;;4812169;29;20053;-82
2021/10/09 10:49:15;;;;;;;6.28;3.47;;;11.90;90.50;;;;;;4827202;29;20079;-82
2021/10/09 10:51:50;;;;;;;4.45;2.38;;;11.90;90.50;;;;;;4831757;29;20070;-81
2021/10/09 10:54:35;;;;;;;3.63;2.13;;;12.00;90.40;;;;;;4803611;29;20048;-81
2021/10/09 10:57:19;;;;;;;4.22;2.55;;;12.00;90.40;;;;;;4834340;29;20067;-80
2021/10/09 11:00:03;;;;;;;3.63;2.25;;;12.10;90.40;;;;;;4830019;29;20042;-81
2021/10/09 11:02:36;;;;;;;4.38;2.15;;;12.10;90.30;;;;;;4828608;29;20054;-82
2021/10/09 11:05:10;;;;;;;4.47;2.70;;;12.40;90.40;;;;;;4848519;29;20046;-81
2021/10/09 11:07:39;;;;;;;4.18;2.20;;;12.20;90.30;;;;;;4831354;29;20046;-81
2021/10/09 11:10:09;;;;;;;4.47;2.60;;;12.30;90.50;;;;;;4780512;29;20044;-82
2021/10/09 11:12:40;;;;;;;6.03;3.08;;;12.20;90.20;;;;;;4793365;29;20044;-82
2021/10/09 11:15:14;;;;;;;4.75;2.70;;;12.40;90.20;;;;;;4796320;29;20253;-82
2021/10/09 11:17:59;;;;;;;5.07;2.83;;;12.40;90.20;;;;;;4776843;29;20051;-84
2021/10/09 11:20:33;;;;;;;5.65;3.50;;;12.50;90.10;;;;;;4724195;30;20155;-84
2021/10/09 11:23:04;;;;;;;6.43;3.90;;;12.60;90.10;;;;;;4725813;30;20048;-84
2021/10/09 11:25:44;;;;;;;6.45;3.83;;;12.80;90.10;;;;;;4711549;30;20052;-84
2021/10/09 11:28:20;;;;;;;5.67;3.07;;;12.60;89.90;;;;;;4726916;30;20091;-83
2021/10/09 11:30:46;;;;;;;4.45;2.50;;;12.70;89.90;;;;;;4739385;30;20048;-82
2021/10/09 11:33:13;;;;;;;5.35;3.28;;;12.90;89.80;;;;;;4721877;30;20059;-82
2021/10/09 11:35:41;;;;;;;5.68;3.03;;;12.80;89.70;;;;;;4721149;30;20056;-81
2021/10/09 11:38:21;;;;;;;4.30;2.80;;;12.90;90.10;;;;;;4754550;30;20048;-82
2021/10/09 11:40:53;;;;;;;4.53;2.35;;;12.90;89.70;;;;;;4752995;30;20044;-82
2021/10/09 11:43:27;;;;;;;4.15;2.40;;;13.00;90.00;;;;;;4754981;30;20056;-83
2021/10/09 11:46:01;;;;;;;3.70;2.22;;;13.00;89.40;;;;;;4754144;29;20043;-82
2021/10/09 11:53:52;;;;;;;3.65;2.20;;;13.20;89.10;;;;;;4811324;29;20130;-84
2021/10/09 11:56:20;;;;;;;3.85;1.90;;;13.30;89.10;;;;;;4828695;29;20043;-80
2021/10/09 11:58:59;;;;;;;4.28;2.42;;;13.40;89.10;;;;;;4826714;29;20051;-79
2021/10/09 12:01:33;;;;;;;3.67;1.90;;;13.40;89.00;;;;;;4815556;29;20053;-80
2021/10/09 12:04:16;;;;;;;3.38;1.80;;;13.50;88.90;;;;;;4826399;29;20050;-82
2021/10/09 12:06:53;;;;;;;4.93;2.65;;;13.60;88.80;;;;;;4810532;29;20062;-81
2021/10/09 12:09:34;;;;;;;4.03;2.10;;;13.60;88.60;;;;;;4780301;29;20553;-82
2021/10/09 12:12:13;;;;;;;4.13;2.28;;;13.70;88.50;;;;;;4843474;29;20210;-84
2021/10/09 12:14:39;;;;;;;4.20;2.60;;;13.90;88.30;;;;;;4843177;29;20038;-84
2021/10/09 12:17:05;;;;;;;4.38;2.50;;;13.90;88.00;;;;;;4805937;29;20057;-83
2021/10/09 12:19:31;;;;;;;3.92;2.20;;;14.00;87.80;;;;;;4780951;29;20488;-84
2021/10/09 12:22:01;;;;;;;5.03;2.83;;;14.00;87.70;;;;;;4826713;29;20050;-84
2021/10/09 12:24:31;;;;;;;4.47;2.72;;;14.10;87.60;;;;;;4811716;29;20060;-85
2021/10/09 12:27:12;;;;;;;5.10;2.80;;;14.20;87.40;;;;;;4781692;29;20050;-84
2021/10/09 12:30:12;;;;;;;3.53;2.13;;;14.20;87.30;;;;;;4812044;29;20126;-84
2021/10/09 12:32:43;;;;;;;4.47;2.40;;;14.30;87.30;;;;;;4842911;29;20041;-84
2021/10/09 12:35:15;;;;;;;;;;;14.30;87.20;;;;;;4826594;29;20077;-84
2021/10/09 12:37:55;;;;;;;2.58;1.60;;;14.50;87.30;;;;;;4808792;29;19939;-84
2021/10/09 12:40:26;;;;;;;2.70;1.80;;;14.50;87.00;;;;;;4795387;29;20133;-84
2021/10/09 12:42:55;;;;;;;2.90;1.83;;;14.50;86.90;;;;;;4796333;29;20085;-84
2021/10/09 12:45:24;;;;;;;3.78;2.10;;;14.60;86.90;;;;;;4810925;29;20044;-84
2021/10/09 12:47:50;;;;;;;2.95;1.80;;;14.70;86.80;;;;;;4810862;29;20050;-84
2021/10/09 12:50:18;;;;;;;2.85;1.90;;;14.70;86.70;;;;;;4825761;29;20052;-84
2021/10/09 12:52:45;;;;;;;2.70;1.88;;;14.80;86.70;;;;;;4796189;29;20062;-85
2021/10/09 12:55:13;;;;;;;3.25;2.00;;;14.70;86.50;;;;;;4825576;29;20509;-84
2021/10/09 12:57:50;;;;;;;3.65;2.30;;;14.80;86.50;;;;;;4825639;29;20054;-84
2021/10/09 13:00:17;;;;;;;4.20;2.40;;;14.80;86.50;;;;;;4826362;29;20034;-83
2021/10/09 13:02:43;;;;;;;3.65;2.05;;;14.80;86.50;;;;;;4780700;29;20054;-85
2021/10/09 13:05:09;;;;;;;4.57;2.22;;;14.90;86.50;;;;;;4809039;29;20038;-85
2021/10/09 13:07:35;;;;;;;3.13;1.80;;;15.00;86.50;;;;;;4825396;29;20480;-85
2021/10/09 13:10:01;;;;;;;3.00;1.88;;;15.00;86.40;;;;;;4801004;29;20054;-85
2021/10/09 13:12:27;;;;;;;2.63;1.75;;;15.00;86.40;;;;;;4795385;29;20042;-85
2021/10/09 13:14:52;;;;;;;4.18;2.00;;;15.00;86.40;;;;;;4810708;29;20137;-85
2021/10/09 13:17:18;;;;;;;3.10;1.90;;;15.00;86.40;;;;;;4825714;29;20049;-84
2021/10/09 13:19:44;;;;;;;3.15;1.73;;;15.10;86.40;;;;;;4795496;29;20423;-85
2021/10/09 13:22:10;;;;;;;3.25;1.95;;;14.90;86.20;;;;;;4809853;29;20129;-85
2021/10/09 13:24:35;;;;;;;4.30;2.38;;;15.10;86.30;;;;;;4798356;29;20122;-85
2021/10/09 13:27:04;;;;;;;3.50;2.15;;;15.00;86.30;;;;;;4810905;29;20054;-84
2021/10/09 13:29:29;;;;;;;4.70;2.53;;;15.20;86.40;;;;;;4799408;29;20053;-84
2021/10/09 13:31:55;;;;;;;4.10;2.60;;;15.30;86.30;;;;;;4780203;29;20038;-85
2021/10/09 13:34:21;;;;;;;3.45;2.10;;;15.20;86.00;;;;;;4797224;29;20062;-84
2021/10/09 13:36:47;;;;;;;3.92;2.22;;;15.30;86.00;;;;;;4811582;29;20053;-85
2021/10/09 13:39:13;;;;;;;2.88;1.88;;;15.30;85.90;;;;;;4828931;29;20061;-85
2021/10/09 13:41:42;;;;;;;2.95;1.83;;;15.30;85.80;;;;;;4825809;29;20408;-85
2021/10/09 13:44:08;;;;;;;3.85;2.30;;;15.30;85.90;;;;;;4788965;29;20069;-84
2021/10/09 13:46:34;;;;;;;4.30;2.50;;;15.30;85.80;;;;;;4775665;29;20102;-84
2021/10/09 13:49:00;;;;;;;3.42;2.20;;;15.40;85.80;;;;;;4775431;29;20134;-84
2021/10/09 13:51:26;;;;;;;3.75;2.10;;;15.40;85.70;;;;;;4785863;29;20104;-85
2021/10/09 13:54:00;;;;;;;3.22;1.80;;;15.40;85.80;;;;;;4782631;29;20055;-85
2021/10/09 13:56:26;;;;;;;3.90;2.00;;;15.40;85.70;;;;;;4768013;29;20047;-86
2021/10/09 13:58:52;;;;;;;4.38;2.78;;;15.40;85.80;;;;;;4771705;29;20415;-84
2021/10/09 14:01:18;;;;;;;4.72;2.50;;;15.40;85.90;;;;;;4773383;29;20055;-85
2021/10/09 14:03:45;;;;;;;4.10;2.22;;;15.30;86.10;;;;;;4773031;29;20050;-84
2021/10/09 14:06:13;;;;;;;4.35;2.50;;;15.30;86.10;;;;;;4785357;29;20070;-85
2021/10/09 14:08:42;;;;;;;4.35;2.70;;;15.40;86.10;;;;;;4798102;29;20493;-85
2021/10/09 14:11:15;;;;;;;4.00;2.10;;;15.30;86.00;;;;;;4795671;29;20492;-84
2021/10/09 14:13:41;;;;;;;4.32;2.47;;;15.40;86.10;;;;;;4803623;29;20062;-84
2021/10/09 14:16:10;;;;;;;3.70;2.20;;;15.40;86.00;;;;;;4787187;29;20564;-84
2021/10/09 14:18:57;;;;;;;4.18;2.10;;;15.30;86.00;;;;;;4769355;30;20047;-84
2021/10/09 14:21:25;;;;;;;3.45;2.05;;;15.30;86.00;;;;;;4770325;30;20124;-84
2021/10/09 14:23:51;;;;;;;3.90;2.10;;;15.30;86.10;;;;;;4770357;30;20236;-84
2021/10/09 14:26:17;;;;;;;3.25;2.15;;;15.30;86.20;;;;;;4754554;30;20134;-85
2021/10/09 14:28:43;;;;;;;3.00;1.90;;;15.30;86.20;;;;;;4754275;30;20059;-84
2021/10/09 14:31:16;;;;;;;4.07;1.98;;;15.30;86.20;;;;;;4739639;30;20113;-85